Satsuki — JD3997 — position and weather

sailwx.info

Track history (hours):
 
Tides and Currents Weather Stations Pressure Air Temp Water Temp Dewpoint Dewpoint Depression Visibility Wind Speed Wind Dir Waves Ship Positions

Satsuki

Last reported at 2018-Jan-21 18:27 UTC. Time now 2018-Jan-23 08:01 UTC.
Position N 34°05' E 132°50'.

Length 64 m; draft 4.5 m.

Type: Tanker. MMSI: 431007429.

Date/timePositionNaut miles runAvg speedWind from/ knotsBaromVisibWave heightAir tempDewpointWater temp
2018-Jan-21 18:27N 34°05' E 132°50'510.5
2018-Jan-21 18:00N 34°01' E 132°46'510.8
2018-Jan-21 17:30N 33°57' E 132°42'611.2
2018-Jan-21 16:58N 33°53' E 132°37'611.3
2018-Jan-21 16:28N 33°49' E 132°32'1011.5
2018-Jan-21 15:34N 33°41' E 132°23'211.7
2018-Jan-21 15:24N 33°40' E 132°22'1911.8
2018-Jan-21 13:47N 33°26' E 132°06'412.2
2018-Jan-21 13:29N 33°24' E 132°03'610.5
2018-Jan-21 12:56N 33°18' E 132°00'145 5.6
2018-Jan-20 11:06N 33°50' E 134°50'511.0
2018-Jan-20 10:37N 33°55' E 134°52'211.3
2018-Jan-20 10:27N 33°57' E 134°52'511.1
2018-Jan-20 10:00N 34°02' E 134°54'611.4
2018-Jan-20 09:31N 34°07' E 134°55'611.4
2018-Jan-20 09:01N 34°13' E 134°57'612.2
2018-Jan-20 08:30N 34°19' E 134°59'510.8
2018-Jan-20 08:01N 34°23' E 135°03'611.8
2018-Jan-20 07:31N 34°27' E 135°09'611.5
2018-Jan-20 07:00N 34°31' E 135°13'510.9
2018-Jan-20 06:30N 34°36' E 135°16'4 7.6
2018-Jan-20 06:00N 34°40' E 135°18'0 0.0
2018-Jan-20 05:30N 34°40' E 135°18'0 0.0
2018-Jan-20 05:00N 34°40' E 135°18'0 0.0
2018-Jan-20 04:30N 34°40' E 135°18'0 0.1
2018-Jan-20 04:00N 34°40' E 135°18'0 0.1
2018-Jan-20 03:30N 34°40' E 135°18'0 0.1
2018-Jan-20 03:00N 34°40' E 135°18'0 0.0
2018-Jan-20 02:30N 34°40' E 135°18'0 0.1
2018-Jan-20 02:00N 34°40' E 135°18'0 0.0
2018-Jan-20 01:30N 34°40' E 135°18'0 0.0
2018-Jan-20 01:00N 34°40' E 135°18'0 0.0
2018-Jan-20 00:30N 34°40' E 135°18'0 0.0
2018-Jan-20 00:00N 34°40' E 135°18'0 0.0
2018-Jan-19 23:30N 34°40' E 135°18'0 0.0
2018-Jan-19 23:00N 34°40' E 135°18'0 0.0
2018-Jan-19 22:30N 34°40' E 135°18'0 0.4
2018-Jan-19 22:00N 34°40' E 135°17'1 2.8
2018-Jan-19 21:30N 34°39' E 135°19'0 0.0
2018-Jan-19 20:58N 34°39' E 135°19'0 0.0
2018-Jan-19 20:28N 34°39' E 135°19'0 0.0
2018-Jan-19 19:58N 34°39' E 135°19'0 0.0
2018-Jan-19 19:25N 34°39' E 135°19'0 0.0
2018-Jan-19 18:58N 34°39' E 135°19'0 0.0
2018-Jan-19 18:28N 34°39' E 135°19'0 0.0
2018-Jan-19 17:55N 34°39' E 135°19'0 0.0
2018-Jan-19 17:28N 34°39' E 135°19'0 0.0
2018-Jan-19 16:58N 34°39' E 135°19'0 0.0
2018-Jan-19 16:28N 34°39' E 135°19'0 0.0
2018-Jan-19 15:58N 34°39' E 135°19'0 0.0
2018-Jan-19 15:25N 34°39' E 135°19'0 0.0
2018-Jan-19 14:58N 34°39' E 135°19'0 0.0
2018-Jan-19 14:28N 34°39' E 135°19'0 0.0
2018-Jan-19 13:58N 34°39' E 135°19'0 0.0
2018-Jan-19 13:28N 34°39' E 135°19'0 0.0
2018-Jan-19 12:58N 34°39' E 135°19'0 0.0
2018-Jan-19 12:28N 34°39' E 135°19'0 0.0
2018-Jan-19 11:58N 34°39' E 135°19'0 0.0
2018-Jan-19 11:22N 34°39' E 135°19'0 0.0
2018-Jan-19 10:58N 34°39' E 135°19'0 0.0
2018-Jan-19 10:25N 34°39' E 135°19'0 0.0
2018-Jan-19 09:58N 34°39' E 135°19'0 0.0
2018-Jan-19 09:25N 34°39' E 135°19'0 0.0
2018-Jan-19 08:58N 34°39' E 135°19'0 0.0
2018-Jan-19 08:28N 34°39' E 135°19'0 0.0
2018-Jan-19 07:58N 34°39' E 135°19'0 0.0
2018-Jan-19 07:28N 34°39' E 135°19'0 0.0
2018-Jan-19 06:58N 34°39' E 135°19'0 0.0
2018-Jan-19 06:28N 34°39' E 135°19'0 0.0
2018-Jan-19 05:58N 34°39' E 135°19'0 0.0
2018-Jan-19 05:28N 34°39' E 135°19'0 0.0
2018-Jan-19 04:58N 34°39' E 135°19'2 5.2
2018-Jan-19 04:30N 34°39' E 135°22'510.3
2018-Jan-19 04:00N 34°38' E 135°28'1 2.8
2018-Jan-19 03:30N 34°39' E 135°29'0 0.0
2018-Jan-19 03:00N 34°39' E 135°29'0 0.0
2018-Jan-19 02:30N 34°39' E 135°29'0 0.0
2018-Jan-19 02:00N 34°39' E 135°29'0 0.0
2018-Jan-19 01:29N 34°39' E 135°29'0 0.0
2018-Jan-19 01:00N 34°39' E 135°29'0 0.0
2018-Jan-19 00:31N 34°39' E 135°29'0 0.0
2018-Jan-19 00:00N 34°39' E 135°29'0 0.0
2018-Jan-18 23:30N 34°39' E 135°29'0 0.0
2018-Jan-18 23:00N 34°39' E 135°29'0 0.0
2018-Jan-18 22:31N 34°39' E 135°29'0 0.0
2018-Jan-18 22:00N 34°39' E 135°29'0 0.0
2018-Jan-18 21:30N 34°39' E 135°29'0 0.1
2018-Jan-18 21:00N 34°39' E 135°29'0 0.1
2018-Jan-18 20:31N 34°39' E 135°29'0 0.0
2018-Jan-18 20:00N 34°39' E 135°29'0 0.0
2018-Jan-18 19:31N 34°39' E 135°29'0 0.0
2018-Jan-18 19:00N 34°39' E 135°29'0 0.0
2018-Jan-18 18:30N 34°39' E 135°29'0 0.0
2018-Jan-18 18:00N 34°39' E 135°29'0 0.0
2018-Jan-18 17:30N 34°39' E 135°29'0 0.0
2018-Jan-18 17:00N 34°39' E 135°29'0 0.0
2018-Jan-18 16:31N 34°39' E 135°29'0 0.0
2018-Jan-18 16:00N 34°39' E 135°29'0 0.0
2018-Jan-18 15:30N 34°39' E 135°29'0 0.0
2018-Jan-18 15:00N 34°39' E 135°29'0 0.0
2018-Jan-18 14:30N 34°39' E 135°29'0 0.0
2018-Jan-18 14:00N 34°39' E 135°29'0 0.0
2018-Jan-18 13:31N 34°39' E 135°29'0 0.0
2018-Jan-18 13:00N 34°39' E 135°29'0 0.0
2018-Jan-18 12:30N 34°39' E 135°29'0 0.0
2018-Jan-18 12:00N 34°39' E 135°29'0 0.0
2018-Jan-18 11:30N 34°39' E 135°29'0 0.0
2018-Jan-18 11:00N 34°39' E 135°29'0 0.1
2018-Jan-18 10:30N 34°39' E 135°29'0 0.0
2018-Jan-18 10:00N 34°39' E 135°29'0 0.1
2018-Jan-18 09:30N 34°39' E 135°29'0 0.0
2018-Jan-18 09:00N 34°39' E 135°29'0 0.0
2018-Jan-18 08:30N 34°39' E 135°29'0 0.0
2018-Jan-18 08:00N 34°39' E 135°29'0 0.0
2018-Jan-18 07:30N 34°39' E 135°29'0 0.0
2018-Jan-18 07:00N 34°39' E 135°29'0 0.0
2018-Jan-18 06:30N 34°39' E 135°29'2 3.2
2018-Jan-18 06:00N 34°38' E 135°27'3 6.2
2018-Jan-18 05:30N 34°40' E 135°25'0 0.0
2018-Jan-18 05:00N 34°40' E 135°25'0 0.0
2018-Jan-18 04:30N 34°40' E 135°25'0 0.0
2018-Jan-18 04:00N 34°40' E 135°25'0 0.0
2018-Jan-18 03:30N 34°40' E 135°25'0 0.0
2018-Jan-18 02:59N 34°40' E 135°25'0 0.0
2018-Jan-18 02:30N 34°40' E 135°25'0 0.0
2018-Jan-18 02:00N 34°40' E 135°25'0 0.0
2018-Jan-18 01:31N 34°40' E 135°25'0 0.1
2018-Jan-18 01:00N 34°40' E 135°25'4 3.5
2018-Jan-18 00:00N 34°38' E 135°29'0 0.0
2018-Jan-17 23:58N 34°38' E 135°29'  
2018-Jan-12 15:00N 35°36' E 140°06'0 0.0
2018-Jan-12 14:30N 35°36' E 140°06'0 0.0
2018-Jan-12 14:00N 35°36' E 140°06'0 0.0
2018-Jan-12 13:30N 35°36' E 140°06'0 0.0
2018-Jan-12 13:00N 35°36' E 140°06'0 0.0
2018-Jan-12 12:30N 35°36' E 140°06'0 0.0
2018-Jan-12 12:00N 35°36' E 140°06'0 0.0
2018-Jan-12 11:30N 35°36' E 140°06'0 0.0
2018-Jan-12 11:00N 35°36' E 140°06'0 0.0
2018-Jan-12 10:30N 35°36' E 140°06'0 0.0
2018-Jan-12 10:00N 35°36' E 140°06'0 0.0
2018-Jan-12 09:30N 35°36' E 140°06'0 0.0
2018-Jan-12 09:00N 35°36' E 140°06'0 0.0
2018-Jan-12 08:30N 35°36' E 140°06'0 0.0
2018-Jan-12 08:00N 35°36' E 140°06'0 0.0
2018-Jan-12 07:30N 35°36' E 140°06'0 0.0
2018-Jan-12 07:00N 35°36' E 140°06'0 0.0
2018-Jan-12 06:30N 35°36' E 140°06'0 0.0
2018-Jan-12 06:00N 35°36' E 140°06'0 0.0
2018-Jan-12 05:30N 35°36' E 140°06'0 0.0
2018-Jan-12 05:00N 35°36' E 140°06'0 0.0
2018-Jan-12 04:30N 35°36' E 140°06'0 0.0
2018-Jan-12 04:00N 35°36' E 140°06'0 0.0
2018-Jan-12 03:30N 35°36' E 140°06'0 0.0
2018-Jan-12 03:00N 35°36' E 140°06'0 0.0
2018-Jan-12 02:30N 35°36' E 140°06'0 0.0
2018-Jan-12 02:00N 35°36' E 140°06'0 0.0
2018-Jan-12 01:30N 35°36' E 140°06'0 0.0
2018-Jan-12 01:00N 35°36' E 140°06'0 0.0
2018-Jan-12 00:30N 35°36' E 140°06'0 0.0
2018-Jan-12 00:00N 35°36' E 140°06'0 0.0
2018-Jan-11 23:30N 35°36' E 140°06'3 6.2
2018-Jan-11 23:00N 35°35' E 140°03'611.5
2018-Jan-11 22:30N 35°31' E 139°58'3 5.4
2018-Jan-11 22:01N 35°29' E 139°56'0 0.0
2018-Jan-11 21:25N 35°29' E 139°56'0 0.0
2018-Jan-11 20:58N 35°29' E 139°56'0 0.0
2018-Jan-11 20:28N 35°29' E 139°56'0 0.0
2018-Jan-11 19:58N 35°29' E 139°56'0 0.0
2018-Jan-11 19:28N 35°29' E 139°56'0 0.1
2018-Jan-11 18:58N 35°29' E 139°56'  
Track history (hours):
 
Tides and Currents Weather Stations Pressure Air Temp Water Temp Dewpoint Dewpoint Depression Visibility Wind Speed Wind Dir Waves Ship Positions

Satsuki

Last reported at 2018-Jan-21 18:27 UTC. Time now 2018-Jan-23 08:01 UTC.
Position N 34°05' E 132°50'.

Length 64 m; draft 4.5 m.

Type: Tanker. MMSI: 431007429.

Date/timePositionNaut miles runAvg speedWind from/ knotsBaromVisibWave heightAir tempDewpointWater temp
2018-Jan-21 18:27N 34°05' E 132°50'510.5
2018-Jan-21 18:00N 34°01' E 132°46'510.8
2018-Jan-21 17:30N 33°57' E 132°42'611.2
2018-Jan-21 16:58N 33°53' E 132°37'611.3
2018-Jan-21 16:28N 33°49' E 132°32'1011.5
2018-Jan-21 15:34N 33°41' E 132°23'211.7
2018-Jan-21 15:24N 33°40' E 132°22'1911.8
2018-Jan-21 13:47N 33°26' E 132°06'412.2
2018-Jan-21 13:29N 33°24' E 132°03'610.5
2018-Jan-21 12:56N 33°18' E 132°00'145 5.6
2018-Jan-20 11:06N 33°50' E 134°50'511.0
2018-Jan-20 10:37N 33°55' E 134°52'211.3
2018-Jan-20 10:27N 33°57' E 134°52'511.1
2018-Jan-20 10:00N 34°02' E 134°54'611.4
2018-Jan-20 09:31N 34°07' E 134°55'611.4
2018-Jan-20 09:01N 34°13' E 134°57'612.2
2018-Jan-20 08:30N 34°19' E 134°59'510.8
2018-Jan-20 08:01N 34°23' E 135°03'611.8
2018-Jan-20 07:31N 34°27' E 135°09'611.5
2018-Jan-20 07:00N 34°31' E 135°13'510.9
2018-Jan-20 06:30N 34°36' E 135°16'4 7.6
2018-Jan-20 06:00N 34°40' E 135°18'0 0.0
2018-Jan-20 05:30N 34°40' E 135°18'0 0.0
2018-Jan-20 05:00N 34°40' E 135°18'0 0.0
2018-Jan-20 04:30N 34°40' E 135°18'0 0.1
2018-Jan-20 04:00N 34°40' E 135°18'0 0.1
2018-Jan-20 03:30N 34°40' E 135°18'0 0.1
2018-Jan-20 03:00N 34°40' E 135°18'0 0.0
2018-Jan-20 02:30N 34°40' E 135°18'0 0.1
2018-Jan-20 02:00N 34°40' E 135°18'0 0.0
2018-Jan-20 01:30N 34°40' E 135°18'0 0.0
2018-Jan-20 01:00N 34°40' E 135°18'0 0.0
2018-Jan-20 00:30N 34°40' E 135°18'0 0.0
2018-Jan-20 00:00N 34°40' E 135°18'0 0.0
2018-Jan-19 23:30N 34°40' E 135°18'0 0.0
2018-Jan-19 23:00N 34°40' E 135°18'0 0.0
2018-Jan-19 22:30N 34°40' E 135°18'0 0.4
2018-Jan-19 22:00N 34°40' E 135°17'1 2.8
2018-Jan-19 21:30N 34°39' E 135°19'0 0.0
2018-Jan-19 20:58N 34°39' E 135°19'0 0.0
2018-Jan-19 20:28N 34°39' E 135°19'0 0.0
2018-Jan-19 19:58N 34°39' E 135°19'0 0.0
2018-Jan-19 19:25N 34°39' E 135°19'0 0.0
2018-Jan-19 18:58N 34°39' E 135°19'0 0.0
2018-Jan-19 18:28N 34°39' E 135°19'0 0.0
2018-Jan-19 17:55N 34°39' E 135°19'0 0.0
2018-Jan-19 17:28N 34°39' E 135°19'0 0.0
2018-Jan-19 16:58N 34°39' E 135°19'0 0.0
2018-Jan-19 16:28N 34°39' E 135°19'0 0.0
2018-Jan-19 15:58N 34°39' E 135°19'0 0.0
2018-Jan-19 15:25N 34°39' E 135°19'0 0.0
2018-Jan-19 14:58N 34°39' E 135°19'0 0.0
2018-Jan-19 14:28N 34°39' E 135°19'0 0.0
2018-Jan-19 13:58N 34°39' E 135°19'0 0.0
2018-Jan-19 13:28N 34°39' E 135°19'0 0.0
2018-Jan-19 12:58N 34°39' E 135°19'0 0.0
2018-Jan-19 12:28N 34°39' E 135°19'0 0.0
2018-Jan-19 11:58N 34°39' E 135°19'0 0.0
2018-Jan-19 11:22N 34°39' E 135°19'0 0.0
2018-Jan-19 10:58N 34°39' E 135°19'0 0.0
2018-Jan-19 10:25N 34°39' E 135°19'0 0.0
2018-Jan-19 09:58N 34°39' E 135°19'0 0.0
2018-Jan-19 09:25N 34°39' E 135°19'0 0.0
2018-Jan-19 08:58N 34°39' E 135°19'0 0.0
2018-Jan-19 08:28N 34°39' E 135°19'0 0.0
2018-Jan-19 07:58N 34°39' E 135°19'0 0.0
2018-Jan-19 07:28N 34°39' E 135°19'0 0.0
2018-Jan-19 06:58N 34°39' E 135°19'0 0.0
2018-Jan-19 06:28N 34°39' E 135°19'0 0.0
2018-Jan-19 05:58N 34°39' E 135°19'0 0.0
2018-Jan-19 05:28N 34°39' E 135°19'0 0.0
2018-Jan-19 04:58N 34°39' E 135°19'2 5.2
2018-Jan-19 04:30N 34°39' E 135°22'510.3
2018-Jan-19 04:00N 34°38' E 135°28'1 2.8
2018-Jan-19 03:30N 34°39' E 135°29'0 0.0
2018-Jan-19 03:00N 34°39' E 135°29'0 0.0
2018-Jan-19 02:30N 34°39' E 135°29'0 0.0
2018-Jan-19 02:00N 34°39' E 135°29'0 0.0
2018-Jan-19 01:29N 34°39' E 135°29'0 0.0
2018-Jan-19 01:00N 34°39' E 135°29'0 0.0
2018-Jan-19 00:31N 34°39' E 135°29'0 0.0
2018-Jan-19 00:00N 34°39' E 135°29'0 0.0
2018-Jan-18 23:30N 34°39' E 135°29'0 0.0
2018-Jan-18 23:00N 34°39' E 135°29'0 0.0
2018-Jan-18 22:31N 34°39' E 135°29'0 0.0
2018-Jan-18 22:00N 34°39' E 135°29'0 0.0
2018-Jan-18 21:30N 34°39' E 135°29'0 0.1
2018-Jan-18 21:00N 34°39' E 135°29'0 0.1
2018-Jan-18 20:31N 34°39' E 135°29'0 0.0
2018-Jan-18 20:00N 34°39' E 135°29'0 0.0
2018-Jan-18 19:31N 34°39' E 135°29'0 0.0
2018-Jan-18 19:00N 34°39' E 135°29'0 0.0
2018-Jan-18 18:30N 34°39' E 135°29'0 0.0
2018-Jan-18 18:00N 34°39' E 135°29'0 0.0
2018-Jan-18 17:30N 34°39' E 135°29'0 0.0
2018-Jan-18 17:00N 34°39' E 135°29'0 0.0
2018-Jan-18 16:31N 34°39' E 135°29'0 0.0
2018-Jan-18 16:00N 34°39' E 135°29'0 0.0
2018-Jan-18 15:30N 34°39' E 135°29'0 0.0
2018-Jan-18 15:00N 34°39' E 135°29'0 0.0
2018-Jan-18 14:30N 34°39' E 135°29'0 0.0
2018-Jan-18 14:00N 34°39' E 135°29'0 0.0
2018-Jan-18 13:31N 34°39' E 135°29'0 0.0
2018-Jan-18 13:00N 34°39' E 135°29'0 0.0
2018-Jan-18 12:30N 34°39' E 135°29'0 0.0
2018-Jan-18 12:00N 34°39' E 135°29'0 0.0
2018-Jan-18 11:30N 34°39' E 135°29'0 0.0
2018-Jan-18 11:00N 34°39' E 135°29'0 0.1
2018-Jan-18 10:30N 34°39' E 135°29'0 0.0
2018-Jan-18 10:00N 34°39' E 135°29'0 0.1
2018-Jan-18 09:30N 34°39' E 135°29'0 0.0
2018-Jan-18 09:00N 34°39' E 135°29'0 0.0
2018-Jan-18 08:30N 34°39' E 135°29'0 0.0
2018-Jan-18 08:00N 34°39' E 135°29'0 0.0
2018-Jan-18 07:30N 34°39' E 135°29'0 0.0
2018-Jan-18 07:00N 34°39' E 135°29'0 0.0
2018-Jan-18 06:30N 34°39' E 135°29'2 3.2
2018-Jan-18 06:00N 34°38' E 135°27'3 6.2
2018-Jan-18 05:30N 34°40' E 135°25'0 0.0
2018-Jan-18 05:00N 34°40' E 135°25'0 0.0
2018-Jan-18 04:30N 34°40' E 135°25'0 0.0
2018-Jan-18 04:00N 34°40' E 135°25'0 0.0
2018-Jan-18 03:30N 34°40' E 135°25'0 0.0
2018-Jan-18 02:59N 34°40' E 135°25'0 0.0
2018-Jan-18 02:30N 34°40' E 135°25'0 0.0
2018-Jan-18 02:00N 34°40' E 135°25'0 0.0
2018-Jan-18 01:31N 34°40' E 135°25'0 0.1
2018-Jan-18 01:00N 34°40' E 135°25'4 3.5
2018-Jan-18 00:00N 34°38' E 135°29'0 0.0
2018-Jan-17 23:58N 34°38' E 135°29'  
2018-Jan-12 15:00N 35°36' E 140°06'0 0.0
2018-Jan-12 14:30N 35°36' E 140°06'0 0.0
2018-Jan-12 14:00N 35°36' E 140°06'0 0.0
2018-Jan-12 13:30N 35°36' E 140°06'0 0.0
2018-Jan-12 13:00N 35°36' E 140°06'0 0.0
2018-Jan-12 12:30N 35°36' E 140°06'0 0.0
2018-Jan-12 12:00N 35°36' E 140°06'0 0.0
2018-Jan-12 11:30N 35°36' E 140°06'0 0.0
2018-Jan-12 11:00N 35°36' E 140°06'0 0.0
2018-Jan-12 10:30N 35°36' E 140°06'0 0.0
2018-Jan-12 10:00N 35°36' E 140°06'0 0.0
2018-Jan-12 09:30N 35°36' E 140°06'0 0.0
2018-Jan-12 09:00N 35°36' E 140°06'0 0.0
2018-Jan-12 08:30N 35°36' E 140°06'0 0.0
2018-Jan-12 08:00N 35°36' E 140°06'0 0.0
2018-Jan-12 07:30N 35°36' E 140°06'0 0.0
2018-Jan-12 07:00N 35°36' E 140°06'0 0.0
2018-Jan-12 06:30N 35°36' E 140°06'0 0.0
2018-Jan-12 06:00N 35°36' E 140°06'0 0.0
2018-Jan-12 05:30N 35°36' E 140°06'0 0.0
2018-Jan-12 05:00N 35°36' E 140°06'0 0.0
2018-Jan-12 04:30N 35°36' E 140°06'0 0.0
2018-Jan-12 04:00N 35°36' E 140°06'0 0.0
2018-Jan-12 03:30N 35°36' E 140°06'0 0.0
2018-Jan-12 03:00N 35°36' E 140°06'0 0.0
2018-Jan-12 02:30N 35°36' E 140°06'0 0.0
2018-Jan-12 02:00N 35°36' E 140°06'0 0.0
2018-Jan-12 01:30N 35°36' E 140°06'0 0.0
2018-Jan-12 01:00N 35°36' E 140°06'0 0.0
2018-Jan-12 00:30N 35°36' E 140°06'0 0.0
2018-Jan-12 00:00N 35°36' E 140°06'0 0.0
2018-Jan-11 23:30N 35°36' E 140°06'3 6.2
2018-Jan-11 23:00N 35°35' E 140°03'611.5
2018-Jan-11 22:30N 35°31' E 139°58'3 5.4
2018-Jan-11 22:01N 35°29' E 139°56'0 0.0
2018-Jan-11 21:25N 35°29' E 139°56'0 0.0
2018-Jan-11 20:58N 35°29' E 139°56'0 0.0
2018-Jan-11 20:28N 35°29' E 139°56'0 0.0
2018-Jan-11 19:58N 35°29' E 139°56'0 0.0
2018-Jan-11 19:28N 35°29' E 139°56'0 0.1
2018-Jan-11 18:58N 35°29' E 139°56'  

Dump ship's entire track history